createdAt,value
2023-05-16T00:01:45.725Z,22.72
2023-05-16T00:04:16.269Z,22.69
2023-05-16T00:06:46.800Z,20.74
2023-05-16T00:09:17.352Z,19.90
2023-05-16T00:11:49.777Z,21.26
2023-05-16T00:14:21.921Z,20.36
2023-05-16T00:16:52.569Z,20.73
2023-05-16T00:19:23.024Z,21.04
2023-05-16T00:21:54.713Z,20.10
2023-05-16T00:24:25.457Z,20.44
2023-05-16T00:26:55.991Z,20.49
2023-05-16T00:29:26.851Z,20.90
2023-05-16T00:31:57.605Z,20.19
2023-05-16T00:34:28.175Z,20.71
2023-05-16T00:36:58.732Z,20.69
2023-05-16T00:39:29.525Z,20.46
2023-05-16T00:42:00.401Z,21.77
2023-05-16T00:44:31.446Z,20.67
2023-05-16T00:47:04.147Z,21.34
2023-05-16T00:49:33.744Z,20.96
2023-05-16T00:52:04.977Z,21.26
2023-05-16T00:54:37.680Z,20.36
2023-05-16T00:57:09.800Z,20.72
2023-05-16T00:59:40.235Z,20.57
2023-05-16T01:02:10.901Z,20.71
2023-05-16T01:04:42.186Z,21.95
2023-05-16T01:07:12.704Z,23.28
2023-05-16T01:09:46.060Z,23.38
2023-05-16T01:12:31.529Z,23.21
2023-05-16T01:15:08.880Z,21.47
2023-05-16T01:17:55.476Z,23.41
2023-05-16T01:20:40.094Z,21.87
2023-05-16T01:24:05.167Z,20.41
2023-05-16T01:26:37.934Z,20.38
2023-05-16T01:29:10.195Z,20.98
2023-05-16T01:31:40.681Z,20.20
2023-05-16T01:34:11.125Z,22.01
2023-05-16T01:36:59.581Z,22.00
2023-05-16T01:39:44.695Z,23.82
2023-05-16T01:42:21.215Z,23.57
2023-05-16T01:45:07.052Z,23.38
2023-05-16T01:47:40.442Z,22.97
2023-05-16T01:50:22.332Z,23.63
2023-05-16T01:52:58.590Z,24.94
2023-05-16T01:55:53.519Z,26.46
2023-05-16T01:58:27.164Z,27.47
2023-05-16T02:01:01.992Z,25.04
2023-05-16T02:03:36.899Z,26.82
2023-05-16T02:06:07.530Z,27.02
2023-05-16T02:08:37.963Z,26.77
2023-05-16T02:11:08.318Z,27.08
2023-05-16T02:13:39.074Z,28.14
2023-05-16T02:16:09.885Z,25.93
2023-05-16T02:18:41.109Z,27.05
2023-05-16T02:21:11.533Z,26.03
2023-05-16T02:23:42.180Z,28.16
2023-05-16T02:26:12.591Z,27.29
2023-05-16T02:28:42.995Z,25.16
2023-05-16T02:31:13.430Z,27.13
2023-05-16T02:33:43.846Z,28.41
2023-05-16T02:36:14.342Z,26.16
2023-05-16T02:38:45.536Z,29.16
2023-05-16T02:41:16.021Z,29.62
2023-05-16T02:43:47.096Z,29.33
2023-05-16T02:46:28.827Z,29.00
2023-05-16T02:48:59.526Z,29.30
2023-05-16T02:51:30.784Z,29.49
2023-05-16T02:54:04.230Z,25.00
2023-05-16T02:56:34.609Z,23.37
2023-05-16T02:59:05.793Z,24.13
2023-05-16T03:01:36.404Z,24.45
2023-05-16T03:04:08.141Z,24.58
2023-05-16T03:06:38.561Z,24.95
2023-05-16T03:09:09.360Z,27.06
2023-05-16T03:11:39.791Z,24.18
2023-05-16T03:14:10.907Z,21.90
2023-05-16T03:16:43.146Z,22.01
2023-05-16T03:19:13.052Z,21.52
2023-05-16T03:21:43.444Z,21.28
2023-05-16T03:24:15.834Z,20.97
2023-05-16T03:26:46.860Z,21.07
2023-05-16T03:29:17.192Z,21.53
2023-05-16T03:31:47.659Z,20.49
2023-05-16T03:34:17.994Z,20.63
2023-05-16T03:36:48.418Z,21.34
2023-05-16T03:39:19.567Z,19.54
2023-05-16T03:41:50.048Z,19.44
2023-05-16T03:44:20.638Z,19.46
2023-05-16T03:46:50.832Z,20.03
2023-05-16T03:49:22.520Z,19.60
2023-05-16T03:51:52.863Z,19.39
2023-05-16T03:54:24.255Z,19.53
2023-05-16T03:56:54.758Z,19.38
2023-05-16T03:59:25.133Z,19.17
2023-05-16T04:01:55.623Z,20.43
2023-05-16T04:04:26.088Z,19.58
2023-05-16T04:06:56.467Z,20.63
2023-05-16T04:09:45.172Z,19.49
2023-05-16T04:12:15.546Z,19.59
2023-05-16T04:14:46.018Z,19.10
2023-05-16T04:17:16.493Z,19.17
2023-05-16T04:19:46.903Z,19.35
2023-05-16T04:22:17.513Z,19.80
2023-05-16T04:24:47.921Z,19.78
2023-05-16T04:27:18.394Z,20.65
2023-05-16T04:29:48.780Z,20.67
2023-05-16T04:32:19.813Z,18.95
2023-05-16T04:34:51.575Z,19.94
2023-05-16T04:37:22.418Z,19.03
2023-05-16T04:39:53.060Z,19.75
2023-05-16T04:42:23.808Z,19.16
2023-05-16T04:44:54.192Z,19.56
2023-05-16T04:47:24.678Z,19.49
2023-05-16T04:49:55.195Z,19.21
2023-05-16T04:52:25.825Z,19.03
2023-05-16T04:54:56.456Z,18.32
2023-05-16T04:57:26.954Z,18.68
2023-05-16T04:59:57.600Z,18.96
2023-05-16T05:02:28.871Z,18.91
2023-05-16T05:04:59.324Z,18.53
2023-05-16T05:07:30.718Z,18.52
2023-05-16T05:10:01.373Z,18.46
2023-05-16T05:12:32.314Z,18.84
2023-05-16T05:15:02.788Z,18.43
2023-05-16T05:17:33.247Z,18.60
2023-05-16T05:20:08.394Z,19.06
2023-05-16T05:22:38.813Z,19.21
2023-05-16T05:25:09.860Z,19.27
2023-05-16T05:27:40.214Z,18.84
2023-05-16T05:30:11.296Z,19.06
2023-05-16T05:32:59.840Z,18.79
2023-05-16T05:35:30.509Z,18.12
2023-05-16T05:38:01.351Z,17.77
2023-05-16T05:40:31.734Z,18.08
2023-05-16T05:43:02.141Z,18.19
2023-05-16T05:45:32.631Z,17.97
2023-05-16T05:48:03.152Z,18.30
2023-05-16T05:50:33.656Z,18.80
2023-05-16T05:53:04.305Z,18.25
2023-05-16T05:55:34.887Z,17.62
2023-05-16T05:58:07.174Z,18.28
2023-05-16T06:00:37.290Z,19.80
2023-05-16T06:03:08.184Z,19.38
2023-05-16T06:05:38.813Z,19.22
2023-05-16T06:08:09.646Z,19.83
2023-05-16T06:10:40.083Z,20.02
2023-05-16T06:13:10.917Z,19.54
2023-05-16T06:15:41.594Z,19.02
2023-05-16T06:18:12.055Z,19.58
2023-05-16T06:20:42.434Z,20.91
2023-05-16T06:23:12.916Z,19.93
2023-05-16T06:25:43.289Z,19.31
2023-05-16T06:28:13.669Z,18.91
2023-05-16T06:30:44.065Z,19.64
2023-05-16T06:33:14.463Z,20.16
2023-05-16T06:35:44.954Z,19.29
2023-05-16T06:38:15.452Z,19.17
2023-05-16T06:40:45.821Z,18.83
2023-05-16T06:43:16.623Z,19.21
2023-05-16T06:45:50.110Z,19.38
2023-05-16T06:48:21.374Z,19.06
2023-05-16T06:50:55.371Z,19.95
2023-05-16T06:53:25.864Z,19.50
2023-05-16T06:55:56.636Z,19.22
2023-05-16T06:58:27.049Z,19.55
2023-05-16T07:00:57.649Z,19.42
2023-05-16T07:03:28.243Z,19.04
2023-05-16T07:05:59.620Z,19.63
2023-05-16T07:08:29.890Z,20.82
2023-05-16T07:11:00.578Z,19.29
2023-05-16T07:13:31.035Z,19.75
2023-05-16T07:16:01.493Z,19.29
2023-05-16T07:18:31.835Z,19.46
2023-05-16T07:21:02.297Z,19.49
2023-05-16T07:23:32.770Z,19.92
2023-05-16T07:26:03.183Z,19.46
2023-05-16T07:28:33.601Z,20.15
2023-05-16T07:31:04.227Z,20.55
2023-05-16T07:33:34.627Z,20.08
2023-05-16T07:36:16.226Z,19.68
2023-05-16T07:38:47.226Z,20.31
2023-05-16T07:41:17.599Z,19.61
2023-05-16T07:43:48.068Z,19.38
2023-05-16T07:46:18.558Z,20.91
2023-05-16T07:48:48.889Z,19.93
2023-05-16T07:51:19.582Z,18.92
2023-05-16T07:53:50.026Z,19.38
2023-05-16T07:56:20.743Z,19.81
2023-05-16T07:58:52.030Z,20.05
2023-05-16T08:01:40.413Z,19.61
2023-05-16T08:04:10.837Z,20.01
2023-05-16T08:06:44.841Z,19.97
2023-05-16T08:09:15.435Z,20.26
2023-05-16T08:11:48.867Z,20.48
2023-05-16T08:14:20.338Z,20.93
2023-05-16T08:16:50.986Z,19.65
2023-05-16T08:19:21.519Z,19.82
2023-05-16T08:21:52.195Z,20.77
2023-05-16T08:24:22.852Z,19.70
2023-05-16T08:26:56.246Z,18.28
2023-05-16T08:29:27.847Z,19.85
2023-05-16T08:31:58.233Z,19.61
2023-05-16T08:34:28.734Z,19.95
2023-05-16T08:36:59.178Z,19.91
2023-05-16T08:39:29.569Z,19.25
2023-05-16T08:42:00.504Z,19.04
2023-05-16T08:44:31.456Z,20.04
2023-05-16T08:47:19.352Z,19.41
2023-05-16T08:49:54.409Z,21.72
2023-05-16T08:52:32.198Z,21.33
2023-05-16T08:55:11.843Z,21.12
2023-05-16T08:57:43.552Z,19.61
2023-05-16T09:00:15.086Z,20.03
2023-05-16T09:02:48.823Z,19.81
2023-05-16T09:05:20.037Z,21.24
2023-05-16T09:07:50.766Z,21.07
2023-05-16T09:10:21.446Z,20.98
2023-05-16T09:12:52.755Z,21.26
2023-05-16T09:15:23.353Z,20.79
2023-05-16T09:17:54.156Z,20.63
2023-05-16T09:20:24.653Z,20.79
2023-05-16T09:22:57.992Z,22.07
2023-05-16T09:25:34.109Z,20.53
2023-05-16T09:28:04.868Z,20.26
2023-05-16T09:30:36.999Z,19.72
2023-05-16T09:33:09.761Z,19.76
2023-05-16T09:35:45.259Z,20.14
2023-05-16T09:38:20.051Z,21.44
2023-05-16T09:40:50.514Z,19.59
2023-05-16T09:43:24.646Z,20.55
2023-05-16T09:45:56.878Z,19.70
2023-05-16T09:48:30.059Z,20.06
2023-05-16T09:51:05.592Z,19.62
2023-05-16T09:53:37.041Z,19.85
2023-05-16T09:56:13.896Z,19.90
2023-05-16T09:58:48.788Z,21.07
2023-05-16T10:01:19.411Z,20.02
2023-05-16T10:03:50.026Z,20.92
2023-05-16T10:06:21.196Z,20.45
2023-05-16T10:08:53.305Z,19.89
2023-05-16T10:11:24.061Z,19.29
2023-05-16T10:13:57.653Z,19.71
2023-05-16T10:16:28.965Z,20.19
2023-05-16T10:19:00.266Z,20.81
2023-05-16T10:21:54.114Z,19.98
2023-05-16T10:24:31.374Z,20.00
2023-05-16T10:27:02.039Z,20.79
2023-05-16T10:29:43.036Z,19.47
2023-05-16T10:32:26.927Z,20.77
2023-05-16T10:34:57.777Z,21.08
2023-05-16T10:37:29.529Z,20.65
2023-05-16T10:40:04.014Z,20.96
2023-05-16T10:42:35.578Z,21.85
2023-05-16T10:45:26.374Z,21.03
2023-05-16T10:47:57.979Z,21.06
2023-05-16T10:50:47.478Z,21.37
2023-05-16T10:53:25.802Z,21.14
2023-05-16T10:56:02.380Z,21.04
2023-05-16T10:58:44.056Z,22.29
2023-05-16T11:01:33.320Z,21.42
2023-05-16T11:04:06.288Z,21.98
2023-05-16T11:06:45.778Z,21.36
2023-05-16T11:09:27.004Z,21.16
2023-05-16T11:12:07.948Z,21.93
2023-05-16T11:14:49.094Z,21.74
2023-05-16T11:17:23.933Z,21.49
2023-05-16T11:20:02.297Z,21.53
2023-05-16T11:22:35.163Z,20.31
2023-05-16T11:25:10.823Z,20.36
2023-05-16T11:27:49.534Z,20.66
2023-05-16T11:30:23.456Z,20.48
2023-05-16T11:32:54.161Z,20.60
2023-05-16T11:35:24.642Z,20.71
2023-05-16T11:37:55.261Z,21.27
2023-05-16T11:40:28.420Z,21.79
2023-05-16T11:43:07.309Z,20.66
2023-05-16T11:45:38.467Z,22.21
2023-05-16T11:48:10.175Z,21.43
2023-05-16T11:50:42.921Z,21.09
2023-05-16T11:53:13.342Z,20.88
2023-05-16T11:55:44.685Z,20.33
2023-05-16T11:58:34.676Z,20.78
2023-05-16T12:01:11.177Z,21.22
2023-05-16T12:03:42.491Z,21.23
2023-05-16T12:06:13.139Z,21.07
2023-05-16T12:08:53.036Z,19.69
2023-05-16T12:11:25.961Z,20.08
2023-05-16T12:13:56.821Z,20.83
2023-05-16T12:16:27.590Z,20.09
2023-05-16T12:18:58.414Z,20.18
2023-05-16T12:21:29.124Z,20.17
2023-05-16T12:24:00.441Z,19.99
2023-05-16T12:26:34.227Z,19.80
2023-05-16T12:29:07.310Z,20.06
2023-05-16T12:31:43.883Z,19.96
2023-05-16T12:34:25.084Z,19.76
2023-05-16T12:36:56.155Z,20.26
2023-05-16T12:39:26.714Z,19.96
2023-05-16T12:41:57.213Z,19.96
2023-05-16T12:44:32.798Z,20.32
2023-05-16T12:47:04.271Z,20.56
2023-05-16T12:49:35.924Z,20.10
2023-05-16T12:52:07.495Z,19.28
2023-05-16T12:54:37.961Z,19.69
2023-05-16T12:57:11.722Z,20.87
2023-05-16T12:59:42.173Z,19.41
2023-05-16T13:02:13.651Z,20.00
2023-05-16T13:04:45.214Z,19.52
2023-05-16T13:07:15.694Z,19.83
2023-05-16T13:09:46.216Z,19.84
2023-05-16T13:12:17.322Z,20.02
2023-05-16T13:14:47.916Z,19.56
2023-05-16T13:17:18.250Z,20.17
2023-05-16T13:19:49.096Z,19.90
2023-05-16T13:22:19.726Z,19.83
2023-05-16T13:24:51.110Z,19.63
2023-05-16T13:27:21.498Z,19.66
2023-05-16T13:32:45.862Z,20.31
2023-05-16T13:35:16.416Z,19.88
2023-05-16T13:37:47.432Z,19.60
2023-05-16T13:40:18.869Z,19.71
2023-05-16T13:42:49.395Z,20.67
2023-05-16T13:45:20.276Z,19.97
2023-05-16T13:47:50.761Z,19.58
2023-05-16T13:50:22.120Z,19.83
2023-05-16T13:52:53.722Z,20.35
2023-05-16T13:55:24.639Z,20.46
2023-05-16T13:57:55.140Z,20.25
2023-05-16T14:00:43.588Z,20.39
2023-05-16T14:03:15.644Z,19.69
2023-05-16T14:05:46.292Z,20.14
2023-05-16T14:08:16.676Z,19.82
2023-05-16T14:10:47.295Z,19.46
2023-05-16T14:13:17.870Z,18.88
2023-05-16T14:15:48.563Z,19.16
2023-05-16T14:18:19.110Z,19.48
2023-05-16T14:20:49.910Z,18.93
2023-05-16T14:23:20.256Z,19.14
2023-05-16T14:25:50.998Z,19.16
2023-05-16T14:28:21.660Z,19.11
2023-05-16T14:30:52.150Z,19.35
2023-05-16T14:33:22.947Z,18.19
2023-05-16T14:35:53.629Z,18.87
2023-05-16T14:38:24.006Z,18.88
2023-05-16T14:40:54.461Z,19.30
2023-05-16T14:43:24.960Z,18.57
2023-05-16T14:45:55.381Z,18.87
2023-05-16T14:48:25.809Z,19.07
2023-05-16T14:50:56.285Z,19.34
2023-05-16T14:53:26.951Z,18.64
2023-05-16T14:55:57.436Z,18.51
2023-05-16T14:58:28.563Z,19.04
2023-05-16T15:00:59.141Z,18.70
2023-05-16T15:03:32.027Z,18.96
2023-05-16T15:06:04.233Z,19.73
2023-05-16T15:08:34.462Z,19.08
2023-05-16T15:11:04.928Z,19.24
2023-05-16T15:13:35.294Z,19.18
2023-05-16T15:16:05.961Z,19.53
2023-05-16T15:18:36.477Z,18.72
2023-05-16T15:21:07.252Z,18.55
2023-05-16T15:23:38.089Z,19.07
2023-05-16T15:26:08.511Z,19.05
2023-05-16T15:28:39.007Z,18.54
2023-05-16T15:31:09.583Z,18.89
2023-05-16T15:33:40.003Z,18.87
2023-05-16T15:36:10.719Z,18.50
2023-05-16T15:38:45.886Z,18.42
2023-05-16T15:41:32.079Z,18.81
2023-05-16T15:44:07.734Z,19.01
2023-05-16T15:46:38.256Z,18.92
2023-05-16T15:49:10.894Z,19.21
2023-05-16T15:51:40.768Z,19.18
2023-05-16T15:54:11.689Z,19.08
2023-05-16T15:56:42.156Z,18.74
2023-05-16T15:59:12.877Z,19.21
2023-05-16T16:01:43.457Z,18.80
2023-05-16T16:04:13.987Z,19.17
2023-05-16T16:06:44.416Z,19.25
2023-05-16T16:09:14.852Z,18.39
2023-05-16T16:11:45.391Z,18.57
2023-05-16T16:14:15.854Z,18.75
2023-05-16T16:16:46.939Z,19.19
2023-05-16T16:19:17.774Z,18.85
2023-05-16T16:21:48.675Z,19.18
2023-05-16T16:24:19.302Z,18.84
2023-05-16T16:26:49.833Z,18.61
2023-05-16T16:29:20.505Z,18.54
2023-05-16T16:31:51.001Z,18.80
2023-05-16T16:34:23.275Z,18.73
2023-05-16T16:36:54.042Z,19.13
2023-05-16T16:39:24.579Z,19.06
2023-05-16T16:41:55.330Z,18.75
2023-05-16T16:44:25.745Z,19.13
2023-05-16T16:46:56.490Z,18.77
2023-05-16T16:49:27.162Z,18.79
2023-05-16T16:51:57.778Z,18.86
2023-05-16T16:54:29.559Z,19.14
2023-05-16T16:56:59.955Z,18.57
2023-05-16T16:59:30.390Z,18.76
2023-05-16T17:02:01.028Z,18.66
2023-05-16T17:04:31.487Z,19.46
2023-05-16T17:07:01.938Z,19.05
2023-05-16T17:09:32.324Z,18.83
2023-05-16T17:12:09.834Z,19.22
2023-05-16T17:14:40.266Z,18.82
2023-05-16T17:17:10.748Z,18.71
2023-05-16T17:19:41.261Z,19.18
2023-05-16T17:22:12.134Z,19.15
2023-05-16T17:24:42.683Z,19.05
2023-05-16T17:27:14.200Z,19.09
2023-05-16T17:29:44.719Z,19.17
2023-05-16T17:32:15.117Z,19.01
2023-05-16T17:34:45.865Z,18.89
2023-05-16T17:37:16.528Z,18.71
2023-05-16T17:39:46.976Z,18.87
2023-05-16T17:42:17.613Z,18.46
2023-05-16T17:44:48.082Z,19.33
2023-05-16T17:47:20.861Z,19.23
2023-05-16T17:49:51.838Z,19.27
2023-05-16T17:52:23.661Z,19.14
2023-05-16T17:54:54.424Z,19.39
2023-05-16T17:57:24.832Z,19.46
2023-05-16T17:59:55.432Z,18.99
2023-05-16T18:02:25.981Z,19.53
2023-05-16T18:04:56.402Z,19.69
2023-05-16T18:07:30.811Z,18.89
2023-05-16T18:10:01.343Z,18.30
2023-05-16T18:12:31.931Z,19.20
2023-05-16T18:15:02.355Z,19.34
2023-05-16T18:17:33.168Z,18.76
2023-05-16T18:20:11.035Z,19.23
2023-05-16T18:22:42.298Z,19.15
2023-05-16T18:25:13.295Z,19.01
2023-05-16T18:27:44.028Z,18.82
2023-05-16T18:30:15.116Z,19.26
2023-05-16T18:32:45.825Z,19.10
2023-05-16T18:35:16.377Z,19.41
2023-05-16T18:37:47.335Z,19.44
2023-05-16T18:40:19.499Z,19.47
2023-05-16T18:42:49.946Z,19.39
2023-05-16T18:45:21.008Z,19.42
2023-05-16T18:47:51.496Z,19.34
2023-05-16T18:50:22.232Z,19.48
2023-05-16T18:52:52.776Z,19.43
2023-05-16T18:55:41.232Z,19.68
2023-05-16T18:58:12.319Z,19.57
2023-05-16T19:00:42.804Z,19.88
2023-05-16T19:03:14.737Z,19.26
2023-05-16T19:05:45.390Z,19.76
2023-05-16T19:08:15.986Z,19.69
2023-05-16T19:10:46.578Z,19.66
2023-05-16T19:13:17.019Z,19.41
2023-05-16T19:15:48.026Z,19.69
2023-05-16T19:18:19.525Z,19.46
2023-05-16T19:20:50.074Z,19.56
2023-05-16T19:23:38.736Z,19.85
2023-05-16T19:26:09.192Z,20.07
2023-05-16T19:28:39.659Z,19.69
2023-05-16T19:31:10.600Z,19.79
2023-05-16T19:33:40.996Z,19.66
2023-05-16T19:36:11.506Z,20.06
2023-05-16T19:38:42.159Z,19.49
2023-05-16T19:41:12.748Z,19.93
2023-05-16T19:43:43.245Z,19.69
2023-05-16T19:46:13.558Z,19.28
2023-05-16T19:48:44.156Z,19.90
2023-05-16T19:51:14.668Z,19.48
2023-05-16T19:53:45.426Z,19.97
2023-05-16T19:56:15.940Z,20.11
2023-05-16T19:58:46.584Z,20.03
2023-05-16T20:01:17.138Z,20.37
2023-05-16T20:03:48.149Z,20.44
2023-05-16T20:06:18.542Z,20.28
2023-05-16T20:08:49.067Z,20.04
2023-05-16T20:11:19.444Z,20.44
2023-05-16T20:13:49.877Z,20.07
2023-05-16T20:16:22.089Z,19.96
2023-05-16T20:18:52.065Z,20.57
2023-05-16T20:21:22.357Z,20.00
2023-05-16T20:23:52.579Z,20.60
2023-05-16T20:26:23.901Z,20.44
2023-05-16T20:28:54.376Z,20.35
2023-05-16T20:31:25.158Z,20.22
2023-05-16T20:33:55.488Z,20.14
2023-05-16T20:36:26.106Z,20.16
2023-05-16T20:38:56.691Z,20.23
2023-05-16T20:41:44.958Z,20.00
2023-05-16T20:44:16.132Z,19.54
2023-05-16T20:46:46.616Z,19.96
2023-05-16T20:49:17.460Z,19.98
2023-05-16T20:51:47.982Z,19.22
2023-05-16T20:54:18.562Z,19.94
2023-05-16T20:56:49.108Z,20.41
2023-05-16T20:59:19.536Z,20.37
2023-05-16T21:01:50.005Z,20.35
2023-05-16T21:04:21.191Z,20.17
2023-05-16T21:06:51.819Z,20.59
2023-05-16T21:09:22.514Z,20.41
2023-05-16T21:11:52.920Z,21.02
2023-05-16T21:14:23.297Z,20.62
2023-05-16T21:16:56.608Z,20.23
2023-05-16T21:19:27.329Z,20.23
2023-05-16T21:21:57.814Z,20.21
2023-05-16T21:24:28.519Z,20.55
2023-05-16T21:26:59.158Z,20.90
2023-05-16T21:29:29.626Z,20.38
2023-05-16T21:32:00.263Z,20.46
2023-05-16T21:34:30.701Z,20.63
2023-05-16T21:37:01.528Z,20.44
2023-05-16T21:39:32.020Z,20.52
2023-05-16T21:42:02.889Z,20.69
2023-05-16T21:44:33.297Z,20.11
2023-05-16T21:47:03.813Z,20.87
2023-05-16T21:49:34.667Z,20.10
2023-05-16T21:52:07.176Z,20.93
2023-05-16T21:54:38.135Z,20.98
2023-05-16T21:57:08.730Z,20.49
2023-05-16T21:59:39.217Z,20.65
2023-05-16T22:02:09.767Z,20.28
2023-05-16T22:04:40.262Z,20.41
2023-05-16T22:07:10.719Z,21.06
2023-05-16T22:09:41.188Z,20.58
2023-05-16T22:12:11.838Z,20.49
2023-05-16T22:14:42.263Z,20.54
2023-05-16T22:17:12.740Z,20.91
2023-05-16T22:19:43.965Z,21.49
2023-05-16T22:22:14.796Z,20.26
2023-05-16T22:24:45.684Z,19.90
2023-05-16T22:27:16.309Z,19.70
2023-05-16T22:29:46.825Z,20.23
2023-05-16T22:32:17.312Z,20.82
2023-05-16T22:34:47.687Z,19.63
2023-05-16T22:37:18.079Z,20.00
2023-05-16T22:39:48.672Z,19.75
2023-05-16T22:42:19.139Z,19.27
2023-05-16T22:44:52.224Z,20.08
2023-05-16T22:47:22.645Z,20.22
2023-05-16T22:49:53.181Z,21.10
2023-05-16T22:52:23.799Z,21.48
2023-05-16T22:54:54.466Z,21.09
2023-05-16T22:57:25.146Z,20.56
2023-05-16T22:59:55.588Z,21.46
2023-05-16T23:02:26.126Z,21.88
2023-05-16T23:04:56.856Z,22.24
2023-05-16T23:07:27.520Z,21.12
2023-05-16T23:09:58.125Z,20.84
2023-05-16T23:12:28.576Z,21.12
2023-05-16T23:14:59.785Z,22.28
2023-05-16T23:17:30.396Z,23.16
2023-05-16T23:20:01.133Z,23.50
2023-05-16T23:22:31.625Z,23.35
2023-05-16T23:25:02.301Z,24.42
2023-05-16T23:27:33.340Z,22.96
2023-05-16T23:30:03.844Z,24.24
2023-05-16T23:32:34.272Z,23.33
2023-05-16T23:35:04.898Z,24.09
2023-05-16T23:37:35.339Z,21.70
2023-05-16T23:40:06.102Z,23.14
2023-05-16T23:42:38.295Z,20.69
2023-05-16T23:45:09.332Z,21.07
2023-05-16T23:47:39.901Z,21.70
2023-05-16T23:50:28.732Z,20.84
2023-05-16T23:52:59.155Z,22.03
2023-05-16T23:55:30.058Z,21.05
2023-05-16T23:58:00.703Z,20.80
